Private Wetterstation Wechselburg
Wetterdaten: Freitag, 15.01.2016
Datum Zeit Temp. +2m Bodentemp. Temp.+5cm Temp. Wind Windchill X Diff Temp. Feuchte +2m Feuchte +5cm Sonnenschein Luftdruck Regen Wind Richtung Richtung Sonnenschein Taupunkt Windchill Windben
15.01.2016 00:00 -0,5 C 22,9 C 0,7 C 0,2 C 0,2 C 0,7 C 85 % 89 % 0 % 1006,5 hPa 0,0 l/m 1,8 km/h (1 Bft) S-SW 202 0 min -2,7 C 0,2 C 1,6 km/h (1 Bft)
15.01.2016 00:05 -0,5 C 22,9 C 0,6 C 0,2 C 0,2 C 0,7 C 86 % 89 % 0 % 1006,5 hPa 0,0 l/m 1,1 km/h (1 Bft) O 90 0 min -2,5 C 0,2 C 0,0 km/h (0 Bft)
15.01.2016 00:10 -0,6 C 22,9 C 0,5 C 0,2 C 0,2 C 0,8 C 86 % 89 % 0 % 1006,2 hPa 0,0 l/m 0,5 km/h (0 Bft) SW 225 0 min -2,6 C 0,2 C 0,0 km/h (0 Bft)
15.01.2016 00:15 -0,6 C 22,9 C 0,5 C 0,2 C 0,2 C 0,8 C 86 % 89 % 0 % 1006,2 hPa 0,0 l/m 0,2 km/h (0 Bft) N-NO 22 0 min -2,6 C 0,2 C 0,0 km/h (0 Bft)
15.01.2016 00:20 -0,5 C 22,9 C 0,5 C 0,2 C 0,2 C 0,7 C 86 % 89 % 0 % 1006,2 hPa 0,0 l/m 0,2 km/h (0 Bft) S-SW 202 0 min -2,5 C 0,2 C 2,6 km/h (1 Bft)
15.01.2016 00:25 -0,5 C 22,9 C 0,5 C 0,2 C 0,2 C 0,7 C 86 % 89 % 0 % 1006,2 hPa 0,0 l/m 0,6 km/h (0 Bft) S 180 0 min -2,5 C 0,2 C 2,6 km/h (1 Bft)
15.01.2016 00:30 -0,7 C 22,9 C 0,4 C 0,1 C 0,1 C 0,8 C 86 % 89 % 0 % 1005,8 hPa 0,0 l/m 1,4 km/h (1 Bft) S 180 0 min -2,7 C 0,1 C 3,4 km/h (1 Bft)
15.01.2016 00:35 -0,7 C 22,9 C 0,4 C 0,1 C 0,1 C 0,8 C 86 % 89 % 0 % 1005,8 hPa 0,0 l/m 1,0 km/h (0 Bft) S 180 0 min -2,7 C 0,1 C 0,0 km/h (0 Bft)
15.01.2016 00:41 -0,7 C 22,9 C 0,4 C 0,1 C 0,1 C 0,8 C 86 % 89 % 0 % 1005,8 hPa 0,0 l/m 0,2 km/h (0 Bft) N 0 0 min -2,7 C 0,1 C 0,0 km/h (0 Bft)
15.01.2016 00:50 -0,7 C 22,9 C 0,4 C 0,1 C 0,1 C 0,8 C 87 % 89 % 0 % 1005,9 hPa 0,0 l/m 1,6 km/h (1 Bft) S 180 0 min -2,6 C 0,1 C 5,3 km/h (1 Bft)
15.01.2016 00:55 -0,7 C 22,9 C 0,5 C -0,2 C -0,2 C 0,5 C 87 % 89 % 0 % 1005,9 hPa 0,0 l/m 2,7 km/h (1 Bft) SO 135 0 min -2,6 C -0,2 C 0,0 km/h (0 Bft)
15.01.2016 01:00 -0,7 C 22,9 C 0,5 C 0,0 C 0,0 C 0,7 C 87 % 88 % 0 % 1005,9 hPa 0,0 l/m 2,7 km/h (1 Bft) S-SO 157 0 min -2,6 C 0,0 C 8,9 km/h (2 Bft)
15.01.2016 01:05 -0,7 C 22,9 C 0,5 C 0,0 C 0,0 C 0,7 C 88 % 88 % 0 % 1005,9 hPa 0,0 l/m 2,7 km/h (1 Bft) S 180 0 min -2,4 C 0,0 C 6,0 km/h (2 Bft)
15.01.2016 01:10 -0,5 C 22,9 C 0,5 C -0,5 C -0,6 C 0,0 C 88 % 88 % 0 % 1005,8 hPa 0,0 l/m 3,5 km/h (1 Bft) W-SW 247 0 min -2,2 C -0,6 C 2,4 km/h (1 Bft)
15.01.2016 01:15 -0,6 C 22,9 C 0,5 C -0,3 C -0,3 C 0,3 C 88 % 88 % 0 % 1005,8 hPa 0,0 l/m 3,1 km/h (1 Bft) SO 135 0 min -2,3 C -0,3 C 3,5 km/h (1 Bft)
15.01.2016 01:20 -0,5 C 22,8 C 0,5 C -0,4 C -0,4 C 0,1 C 88 % 88 % 0 % 1005,8 hPa 0,0 l/m 3,4 km/h (1 Bft) S 180 0 min -2,2 C -0,4 C 7,4 km/h (2 Bft)
15.01.2016 01:25 -0,5 C 22,8 C 0,5 C -0,6 C -0,7 C 0,0 C 88 % 88 % 0 % 1005,8 hPa 0,0 l/m 3,9 km/h (1 Bft) S 180 0 min -2,2 C -0,7 C 5,5 km/h (1 Bft)
15.01.2016 01:30 -0,5 C 22,8 C 0,5 C -0,6 C -0,7 C 0,0 C 88 % 87 % 0 % 1005,5 hPa 0,0 l/m 3,5 km/h (1 Bft) S 180 0 min -2,2 C -0,7 C 2,7 km/h (1 Bft)
15.01.2016 01:35 -0,5 C 22,8 C 0,5 C -0,2 C -0,2 C 0,3 C 88 % 87 % 0 % 1005,5 hPa 0,0 l/m 2,7 km/h (1 Bft) S-SO 157 0 min -2,2 C -0,2 C 3,4 km/h (1 Bft)
15.01.2016 01:40 -0,5 C 22,8 C 0,5 C -0,2 C -0,2 C 0,3 C 88 % 87 % 0 % 1005,5 hPa 0,0 l/m 2,7 km/h (1 Bft) S 180 0 min -2,2 C -0,2 C 5,0 km/h (1 Bft)
15.01.2016 01:45 -0,3 C 22,7 C 0,5 C -0,3 C -0,4 C 0,0 C 88 % 87 % 0 % 1005,5 hPa 0,0 l/m 3,1 km/h (1 Bft) NW 315 0 min -2,0 C -0,4 C 8,2 km/h (2 Bft)
15.01.2016 01:50 -0,4 C 22,7 C 0,5 C -0,6 C -1,1 C 0,0 C 88 % 87 % 0 % 1005,6 hPa 0,0 l/m 4,0 km/h (1 Bft) S-SO 157 0 min -2,1 C -1,1 C 5,1 km/h (1 Bft)
15.01.2016 01:55 -0,3 C 22,7 C 0,5 C -0,6 C -1,1 C 0,0 C 88 % 87 % 0 % 1005,6 hPa 0,0 l/m 4,0 km/h (1 Bft) S-SO 157 0 min -2,0 C -1,1 C 2,1 km/h (1 Bft)
15.01.2016 02:00 -0,5 C 22,7 C 0,4 C -0,2 C -0,2 C 0,3 C 88 % 87 % 0 % 1005,6 hPa 0,0 l/m 2,3 km/h (1 Bft) S-SO 157 0 min -2,2 C -0,2 C 2,6 km/h (1 Bft)
15.01.2016 02:05 -0,5 C 22,7 C 0,3 C -0,3 C -0,3 C 0,2 C 88 % 87 % 0 % 1005,6 hPa 0,0 l/m 1,4 km/h (1 Bft) S-SO 157 0 min -2,2 C -0,3 C 4,7 km/h (1 Bft)
15.01.2016 02:10 -0,5 C 22,7 C 0,3 C -0,4 C -0,4 C 0,1 C 88 % 87 % 0 % 1005,4 hPa 0,0 l/m 2,1 km/h (1 Bft) S-SO 157 0 min -2,2 C -0,4 C 1,8 km/h (1 Bft)
15.01.2016 02:15 -0,5 C 22,7 C 0,3 C -0,5 C -0,5 C 0,0 C 88 % 87 % 0 % 1005,4 hPa 0,0 l/m 2,3 km/h (1 Bft) S-SO 157 0 min -2,2 C -0,5 C 0,0 km/h (0 Bft)
15.01.2016 02:20 -0,7 C 22,7 C 0,2 C -0,6 C -0,6 C 0,1 C 87 % 87 % 0 % 1005,4 hPa 0,0 l/m 1,4 km/h (1 Bft) S-SO 157 0 min -2,6 C -0,6 C 0,0 km/h (0 Bft)
15.01.2016 02:25 -0,7 C 22,8 C 0,1 C -0,7 C -0,7 C 0,0 C 88 % 87 % 0 % 1005,4 hPa 0,0 l/m 1,6 km/h (1 Bft) S-SO 157 0 min -2,4 C -0,7 C 4,0 km/h (1 Bft)
15.01.2016 02:30 -0,7 C 22,8 C 0,0 C -0,9 C -1,3 C 0,0 C 88 % 88 % 0 % 1005,5 hPa 0,0 l/m 3,1 km/h (1 Bft) S-SO 157 0 min -2,4 C -1,3 C 2,7 km/h (1 Bft)
15.01.2016 02:35 -0,7 C 22,8 C -0,1 C -0,7 C -0,8 C 0,0 C 88 % 88 % 0 % 1005,5 hPa 0,0 l/m 2,4 km/h (1 Bft) S-SO 157 0 min -2,4 C -0,8 C 0,0 km/h (0 Bft)
15.01.2016 02:40 -0,7 C 22,8 C 0,0 C -0,6 C -0,6 C 0,1 C 88 % 87 % 0 % 1005,5 hPa 0,0 l/m 1,4 km/h (1 Bft) S-SO 157 0 min -2,4 C -0,6 C 0,0 km/h (0 Bft)
15.01.2016 02:45 -0,8 C 22,8 C 0,1 C -0,5 C -0,5 C 0,3 C 87 % 87 % 0 % 1005,5 hPa 0,0 l/m 1,0 km/h (0 Bft) S-SO 157 0 min -2,7 C -0,5 C 1,6 km/h (1 Bft)
15.01.2016 02:50 -0,7 C 22,8 C 0,1 C -0,4 C -0,4 C 0,3 C 88 % 87 % 0 % 1005,2 hPa 0,0 l/m 1,0 km/h (0 Bft) S-SO 157 0 min -2,4 C -0,4 C 0,0 km/h (0 Bft)
15.01.2016 02:55 -0,7 C 22,8 C 0,2 C -0,4 C -0,4 C 0,3 C 87 % 87 % 0 % 1005,2 hPa 0,0 l/m 1,0 km/h (0 Bft) S-SO 157 0 min -2,6 C -0,4 C 0,0 km/h (0 Bft)
15.01.2016 03:00 -0,9 C 22,8 C 0,3 C -0,4 C -0,4 C 0,5 C 88 % 87 % 0 % 1005,2 hPa 0,0 l/m 0,5 km/h (0 Bft) S-SO 157 0 min -2,6 C -0,4 C 2,6 km/h (1 Bft)
15.01.2016 03:05 -0,9 C 22,7 C 0,3 C -0,4 C -0,4 C 0,5 C 88 % 87 % 0 % 1005,2 hPa 0,0 l/m 0,5 km/h (0 Bft) S-SO 157 0 min -2,6 C -0,4 C 0,0 km/h (0 Bft)
15.01.2016 03:10 -0,9 C 22,8 C 0,3 C -0,2 C -0,2 C 0,7 C 88 % 87 % 0 % 1005,1 hPa 0,0 l/m 1,8 km/h (1 Bft) S-SO 157 0 min -2,6 C -0,2 C 2,4 km/h (1 Bft)
15.01.2016 03:15 -0,9 C 22,6 C 0,3 C -0,2 C -0,2 C 0,7 C 88 % 87 % 0 % 1005,1 hPa 0,0 l/m 1,8 km/h (1 Bft) S-SO 157 0 min -2,6 C -0,2 C 0,0 km/h (0 Bft)
15.01.2016 03:20 -0,7 C 22,6 C 0,3 C -0,1 C -0,1 C 0,6 C 88 % 87 % 0 % 1005,1 hPa 0,0 l/m 0,5 km/h (0 Bft) S-SO 157 0 min -2,4 C -0,1 C 0,0 km/h (0 Bft)
15.01.2016 03:25 -0,8 C 22,6 C 0,3 C -0,1 C -0,1 C 0,7 C 88 % 87 % 0 % 1005,1 hPa 0,0 l/m 0,0 km/h (0 Bft) S-SO 157 0 min -2,5 C -0,1 C 1,6 km/h (1 Bft)
15.01.2016 03:30 -0,8 C 22,6 C 0,3 C -0,1 C -0,1 C 0,7 C 88 % 87 % 0 % 1005,1 hPa 0,0 l/m 0,2 km/h (0 Bft) S-SO 157 0 min -2,5 C -0,1 C 0,0 km/h (0 Bft)
15.01.2016 03:35 -0,8 C 22,6 C 0,3 C -0,1 C -0,1 C 0,7 C 88 % 87 % 0 % 1005,1 hPa 0,0 l/m 0,5 km/h (0 Bft) S-SO 157 0 min -2,5 C -0,1 C 1,6 km/h (1 Bft)
15.01.2016 03:41 -0,9 C 22,7 C 0,3 C -0,3 C -0,3 C 0,6 C 87 % 87 % 0 % 1005,1 hPa 0,0 l/m 0,5 km/h (0 Bft) N 0 0 min -2,8 C -0,3 C 0,0 km/h (0 Bft)
15.01.2016 03:50 -0,9 C 22,7 C 0,2 C -0,3 C -0,3 C 0,6 C 88 % 87 % 0 % 1004,9 hPa 0,0 l/m 0,3 km/h (0 Bft) S-SO 157 0 min -2,6 C -0,3 C 0,0 km/h (0 Bft)
15.01.2016 03:55 -0,9 C 22,6 C 0,2 C -0,2 C -0,2 C 0,7 C 88 % 87 % 0 % 1004,9 hPa 0,0 l/m 0,2 km/h (0 Bft) S-SO 157 0 min -2,6 C -0,2 C 0,0 km/h (0 Bft)
15.01.2016 04:00 -0,9 C 22,6 C 0,3 C -0,1 C -0,1 C 0,8 C 88 % 87 % 0 % 1004,9 hPa 0,0 l/m 1,0 km/h (0 Bft) S-SO 157 0 min -2,6 C -0,1 C 1,9 km/h (1 Bft)
15.01.2016 04:05 -0,8 C 22,6 C 0,4 C -0,1 C -0,1 C 0,7 C 88 % 87 % 0 % 1004,9 hPa 0,0 l/m 1,4 km/h (1 Bft) S-SO 157 0 min -2,5 C -0,1 C 0,0 km/h (0 Bft)
15.01.2016 04:10 -0,7 C 22,6 C 0,5 C 0,0 C 0,0 C 0,7 C 88 % 87 % 0 % 1005,2 hPa 0,0 l/m 1,8 km/h (1 Bft) S-SO 157 0 min -2,4 C 0,0 C 3,5 km/h (1 Bft)
15.01.2016 04:15 -0,7 C 22,6 C 0,4 C 0,1 C 0,1 C 0,8 C 88 % 87 % 0 % 1005,2 hPa 0,0 l/m 2,1 km/h (1 Bft) S-SO 157 0 min -2,4 C 0,1 C 3,5 km/h (1 Bft)
15.01.2016 04:20 -0,5 C 22,6 C 0,5 C -0,2 C -0,2 C 0,3 C 88 % 87 % 0 % 1005,2 hPa 0,0 l/m 2,9 km/h (1 Bft) S-SO 157 0 min -2,2 C -0,2 C 3,2 km/h (1 Bft)
15.01.2016 04:25 -0,5 C 22,6 C 0,6 C -0,3 C -0,3 C 0,2 C 88 % 87 % 0 % 1005,2 hPa 0,0 l/m 3,2 km/h (1 Bft) S-SO 157 0 min -2,2 C -0,3 C 2,3 km/h (1 Bft)
15.01.2016 04:30 -0,5 C 22,6 C 0,6 C 0,2 C 0,2 C 0,7 C 88 % 87 % 0 % 1004,6 hPa 0,0 l/m 2,4 km/h (1 Bft) S-SO 157 0 min -2,2 C 0,2 C 2,3 km/h (1 Bft)
15.01.2016 04:35 -0,4 C 22,6 C 0,7 C 0,2 C 0,2 C 0,6 C 88 % 87 % 0 % 1004,6 hPa 0,0 l/m 2,4 km/h (1 Bft) S-SO 157 0 min -2,1 C 0,2 C 0,0 km/h (0 Bft)
15.01.2016 04:40 -0,4 C 22,6 C 0,7 C 0,2 C 0,2 C 0,6 C 88 % 87 % 0 % 1004,6 hPa 0,0 l/m 2,3 km/h (1 Bft) S 180 0 min -2,1 C 0,2 C 7,4 km/h (2 Bft)
15.01.2016 04:45 -0,3 C 22,6 C 0,7 C 0,2 C 0,2 C 0,5 C 88 % 87 % 0 % 1004,6 hPa 0,0 l/m 2,1 km/h (1 Bft) S 180 0 min -2,0 C 0,2 C 5,6 km/h (1 Bft)
15.01.2016 04:50 -0,3 C 22,6 C 0,8 C 0,1 C 0,1 C 0,4 C 88 % 87 % 0 % 1004,6 hPa 0,0 l/m 2,7 km/h (1 Bft) O-NO 67 0 min -2,0 C 0,1 C 5,5 km/h (1 Bft)
15.01.2016 04:55 -0,1 C 22,6 C 0,8 C -0,2 C -0,4 C 0,0 C 88 % 87 % 0 % 1004,6 hPa 0,0 l/m 3,4 km/h (1 Bft) S 180 0 min -1,8 C -0,4 C 6,4 km/h (2 Bft)
15.01.2016 05:00 -0,1 C 22,6 C 0,9 C -0,3 C -0,7 C 0,0 C 88 % 87 % 0 % 1004,6 hPa 0,0 l/m 4,0 km/h (1 Bft) S-SO 157 0 min -1,8 C -0,7 C 5,0 km/h (1 Bft)
15.01.2016 05:05 -0,1 C 22,6 C 0,9 C -0,3 C -0,7 C 0,0 C 88 % 87 % 0 % 1004,6 hPa 0,0 l/m 4,2 km/h (1 Bft) S-SW 202 0 min -1,8 C -0,7 C 6,4 km/h (2 Bft)
15.01.2016 05:10 -0,1 C 22,6 C 0,8 C -0,3 C -0,7 C 0,0 C 88 % 87 % 0 % 1004,4 hPa 0,0 l/m 4,2 km/h (1 Bft) S-SW 202 0 min -1,8 C -0,7 C 4,8 km/h (1 Bft)
15.01.2016 05:15 -0,1 C 22,6 C 0,8 C -0,3 C -0,6 C 0,0 C 88 % 87 % 0 % 1004,4 hPa 0,0 l/m 4,0 km/h (1 Bft) S 180 0 min -1,8 C -0,6 C 2,9 km/h (1 Bft)
15.01.2016 05:20 0,1 C 22,6 C 0,9 C 0,0 C -0,1 C 0,0 C 88 % 87 % 0 % 1004,4 hPa 0,0 l/m 3,2 km/h (1 Bft) S 180 0 min -1,6 C -0,1 C 0,0 km/h (0 Bft)
15.01.2016 05:25 0,0 C 22,7 C 0,9 C 0,3 C 0,3 C 0,3 C 88 % 87 % 0 % 1004,4 hPa 0,0 l/m 2,7 km/h (1 Bft) S-SW 202 0 min -1,7 C 0,3 C 3,2 km/h (1 Bft)
15.01.2016 05:30 0,1 C 22,7 C 0,9 C 0,5 C 0,5 C 0,4 C 88 % 87 % 0 % 1004,4 hPa 0,0 l/m 1,9 km/h (1 Bft) S 180 0 min -1,6 C 0,5 C 3,4 km/h (1 Bft)
15.01.2016 05:35 -0,1 C 22,7 C 0,9 C 0,5 C 0,5 C 0,6 C 88 % 87 % 0 % 1004,4 hPa 0,0 l/m 1,4 km/h (1 Bft) S 180 0 min -1,8 C 0,5 C 0,0 km/h (0 Bft)
15.01.2016 05:40 -0,1 C 22,7 C 0,9 C 0,5 C 0,5 C 0,6 C 88 % 87 % 0 % 1004,4 hPa 0,0 l/m 1,1 km/h (1 Bft) S 180 0 min -1,8 C 0,5 C 0,0 km/h (0 Bft)
15.01.2016 05:45 -0,1 C 22,7 C 0,9 C 0,5 C 0,5 C 0,6 C 88 % 87 % 0 % 1004,4 hPa 0,0 l/m 1,1 km/h (1 Bft) S-SW 202 0 min -1,8 C 0,5 C 1,6 km/h (1 Bft)
15.01.2016 05:50 0,0 C 22,7 C 0,9 C 0,5 C 0,5 C 0,5 C 88 % 87 % 0 % 1004,6 hPa 0,0 l/m 2,3 km/h (1 Bft) S 180 0 min -1,7 C 0,5 C 3,4 km/h (1 Bft)
15.01.2016 05:55 0,0 C 22,7 C 0,9 C 0,5 C 0,5 C 0,5 C 88 % 87 % 0 % 1004,6 hPa 0,0 l/m 2,6 km/h (1 Bft) S 180 0 min -1,7 C 0,5 C 2,7 km/h (1 Bft)
15.01.2016 06:00 0,0 C 22,7 C 0,9 C 0,5 C 0,5 C 0,5 C 88 % 87 % 0 % 1004,6 hPa 0,0 l/m 2,6 km/h (1 Bft) S-SO 157 0 min -1,7 C 0,5 C 0,0 km/h (0 Bft)
15.01.2016 06:05 0,0 C 22,7 C 0,9 C 0,6 C 0,6 C 0,6 C 88 % 87 % 0 % 1004,6 hPa 0,0 l/m 2,3 km/h (1 Bft) S-SO 157 0 min -1,7 C 0,6 C 0,0 km/h (0 Bft)
15.01.2016 06:10 0,1 C 22,7 C 0,9 C 0,4 C 0,4 C 0,3 C 88 % 87 % 0 % 1004,8 hPa 0,0 l/m 0,5 km/h (0 Bft) W 270 0 min -1,6 C 0,4 C 0,0 km/h (0 Bft)
15.01.2016 06:15 -0,1 C 22,7 C 1,0 C 0,4 C 0,4 C 0,5 C 88 % 88 % 0 % 1004,8 hPa 0,0 l/m 0,6 km/h (0 Bft) W 270 0 min -1,8 C 0,4 C 0,0 km/h (0 Bft)
15.01.2016 06:20 -0,1 C 22,6 C 1,1 C 0,5 C 0,5 C 0,6 C 88 % 88 % 0 % 1004,8 hPa 0,0 l/m 0,3 km/h (0 Bft) N-NW 337 0 min -1,8 C 0,5 C 0,0 km/h (0 Bft)
15.01.2016 06:25 -0,1 C 22,6 C 1,1 C 0,5 C 0,5 C 0,6 C 88 % 88 % 0 % 1004,8 hPa 0,0 l/m 0,8 km/h (0 Bft) NW 315 0 min -1,8 C 0,5 C 2,6 km/h (1 Bft)
15.01.2016 06:30 0,0 C 22,6 C 1,1 C 0,6 C 0,6 C 0,6 C 88 % 88 % 0 % 1004,2 hPa 0,0 l/m 1,9 km/h (1 Bft) W-NW 292 0 min -1,7 C 0,6 C 5,3 km/h (1 Bft)
15.01.2016 06:35 0,0 C 22,6 C 1,1 C 0,6 C 0,6 C 0,6 C 88 % 88 % 0 % 1004,2 hPa 0,0 l/m 2,3 km/h (1 Bft) O 90 0 min -1,7 C 0,6 C 5,5 km/h (1 Bft)
15.01.2016 06:41 0,1 C 22,6 C 1,1 C 0,6 C 0,6 C 0,5 C 88 % 88 % 0 % 1004,2 hPa 0,0 l/m 2,3 km/h (1 Bft) N 0 0 min -1,6 C 0,6 C 3,1 km/h (1 Bft)
15.01.2016 06:50 0,2 C 22,6 C 1,2 C 0,7 C 0,7 C 0,5 C 87 % 88 % 0 % 1004,4 hPa 0,0 l/m 1,9 km/h (1 Bft) SO 135 0 min -1,7 C 0,7 C 3,9 km/h (1 Bft)
15.01.2016 06:55 0,3 C 22,6 C 1,3 C 0,7 C 0,7 C 0,4 C 87 % 88 % 0 % 1004,4 hPa 0,0 l/m 1,8 km/h (1 Bft) SW 225 0 min -1,6 C 0,7 C 4,8 km/h (1 Bft)
15.01.2016 07:00 0,2 C 22,6 C 1,2 C 0,2 C 0,2 C 0,0 C 87 % 88 % 0 % 1004,4 hPa 0,0 l/m 3,2 km/h (1 Bft) SO 135 0 min -1,7 C 0,2 C 9,0 km/h (2 Bft)
15.01.2016 07:05 0,3 C 22,6 C 1,2 C 0,1 C -0,4 C 0,0 C 87 % 88 % 0 % 1004,4 hPa 0,0 l/m 4,3 km/h (1 Bft) S-SW 202 0 min -1,6 C -0,4 C 5,8 km/h (2 Bft)
15.01.2016 07:10 0,3 C 22,6 C 1,2 C 0,2 C 0,1 C 0,0 C 87 % 89 % 0 % 1004,3 hPa 0,0 l/m 3,4 km/h (1 Bft) S-SW 202 0 min -1,6 C 0,1 C 2,7 km/h (1 Bft)
15.01.2016 07:15 0,3 C 22,6 C 1,2 C 0,4 C 0,4 C 0,1 C 87 % 89 % 0 % 1004,3 hPa 0,0 l/m 2,9 km/h (1 Bft) W-SW 247 0 min -1,6 C 0,4 C 9,7 km/h (2 Bft)
15.01.2016 07:20 0,3 C 22,5 C 1,2 C 0,3 C 0,3 C 0,0 C 87 % 89 % 0 % 1004,3 hPa 0,0 l/m 3,1 km/h (1 Bft) W-SW 247 0 min -1,6 C 0,3 C 3,4 km/h (1 Bft)
15.01.2016 07:25 0,3 C 22,6 C 1,2 C 0,3 C 0,2 C 0,0 C 87 % 89 % 0 % 1004,3 hPa 0,0 l/m 3,2 km/h (1 Bft) O-SO 112 0 min -1,6 C 0,2 C 5,8 km/h (2 Bft)
15.01.2016 07:30 0,3 C 22,5 C 1,2 C 0,6 C 0,6 C 0,3 C 86 % 90 % 0 % 1004,5 hPa 0,0 l/m 2,4 km/h (1 Bft) NW 315 0 min -1,8 C 0,6 C 0,0 km/h (0 Bft)
15.01.2016 07:35 0,2 C 22,5 C 1,1 C 0,6 C 0,6 C 0,4 C 86 % 90 % 0 % 1004,5 hPa 0,0 l/m 1,4 km/h (1 Bft) N-NO 22 0 min -1,9 C 0,6 C 1,8 km/h (1 Bft)
15.01.2016 07:40 0,3 C 22,5 C 1,2 C 0,5 C 0,5 C 0,2 C 86 % 90 % 0 % 1004,5 hPa 0,0 l/m 1,8 km/h (1 Bft) S-SO 157 0 min -1,8 C 0,5 C 3,9 km/h (1 Bft)
15.01.2016 07:45 0,3 C 22,5 C 1,3 C 0,4 C 0,4 C 0,1 C 86 % 90 % 0 % 1004,5 hPa 0,0 l/m 2,6 km/h (1 Bft) O 90 0 min -1,8 C 0,4 C 4,0 km/h (1 Bft)
15.01.2016 07:50 0,3 C 22,5 C 1,2 C 0,2 C 0,1 C 0,0 C 86 % 90 % 0 % 1004,8 hPa 0,0 l/m 2,9 km/h (1 Bft) SW 225 0 min -1,8 C 0,1 C 11,6 km/h (2 Bft)
15.01.2016 07:55 0,3 C 22,5 C 1,2 C 0,2 C 0,1 C 0,0 C 86 % 90 % 0 % 1004,8 hPa 0,0 l/m 2,9 km/h (1 Bft) W 270 0 min -1,8 C 0,1 C 2,4 km/h (1 Bft)
15.01.2016 08:00 0,4 C 22,5 C 1,1 C 0,2 C -0,2 C 0,0 C 85 % 90 % 0 % 1004,8 hPa 0,0 l/m 3,2 km/h (1 Bft) SW 225 0 min -1,8 C -0,2 C 5,5 km/h (1 Bft)
15.01.2016 08:05 0,3 C 22,5 C 1,1 C 0,1 C -0,3 C 0,0 C 85 % 90 % 0 % 1004,8 hPa 0,0 l/m 3,2 km/h (1 Bft) W-SW 247 0 min -1,9 C -0,3 C 6,1 km/h (2 Bft)
15.01.2016 08:10 0,2 C 22,5 C 0,8 C -0,1 C -0,7 C 0,0 C 85 % 90 % 0 % 1004,8 hPa 0,0 l/m 3,9 km/h (1 Bft) W-SW 247 0 min -2,0 C -0,7 C 4,2 km/h (1 Bft)
15.01.2016 08:15 0,3 C 22,5 C 0,8 C -0,1 C -0,9 C 0,0 C 85 % 90 % 0 % 1004,8 hPa 0,0 l/m 3,9 km/h (1 Bft) SW 225 0 min -1,9 C -0,9 C 5,5 km/h (1 Bft)
15.01.2016 08:20 0,2 C 22,5 C 0,7 C 0,0 C -0,5 C 0,0 C 85 % 90 % 0 % 1004,8 hPa 0,0 l/m 3,1 km/h (1 Bft) S 180 0 min -2,0 C -0,5 C 2,4 km/h (1 Bft)
15.01.2016 08:25 0,1 C 22,5 C 0,7 C 0,0 C -0,1 C 0,0 C 85 % 90 % 0 % 1004,8 hPa 0,0 l/m 2,3 km/h (1 Bft) S 180 0 min -2,1 C -0,1 C 0,0 km/h (0 Bft)
15.01.2016 08:30 0,0 C 22,5 C 0,7 C -0,1 C -0,2 C 0,0 C 84 % 90 % 0 % 1005,1 hPa 0,0 l/m 1,1 km/h (1 Bft) S 180 0 min -2,4 C -0,2 C 0,0 km/h (0 Bft)
15.01.2016 08:35 0,0 C 22,5 C 0,7 C -0,1 C -0,2 C 0,0 C 84 % 90 % 0 % 1005,1 hPa 0,0 l/m 1,3 km/h (1 Bft) S 180 0 min -2,4 C -0,2 C 1,8 km/h (1 Bft)
15.01.2016 08:40 0,0 C 22,5 C 0,7 C -0,1 C -0,2 C 0,0 C 84 % 90 % 0 % 1005,1 hPa 0,0 l/m 0,6 km/h (0 Bft) S 180 0 min -2,4 C -0,2 C 0,0 km/h (0 Bft)
15.01.2016 08:45 -0,1 C 22,5 C 0,5 C -0,2 C -0,3 C 0,0 C 84 % 90 % 0 % 1005,1 hPa 0,0 l/m 0,8 km/h (0 Bft) S 180 0 min -2,5 C -0,3 C 4,8 km/h (1 Bft)
15.01.2016 08:50 -0,1 C 22,5 C 0,5 C -0,1 C -0,2 C 0,0 C 84 % 90 % 0 % 1005,1 hPa 0,0 l/m 2,1 km/h (1 Bft) S 180 0 min -2,5 C -0,2 C 4,5 km/h (1 Bft)
15.01.2016 08:55 -0,1 C 22,5 C 0,4 C -0,2 C -0,3 C 0,0 C 84 % 90 % 0 % 1005,1 hPa 0,0 l/m 2,6 km/h (1 Bft) S 180 0 min -2,5 C -0,3 C 3,1 km/h (1 Bft)
15.01.2016 09:00 -0,1 C 22,5 C 0,3 C -0,1 C -0,2 C 0,0 C 84 % 90 % 0 % 1005,1 hPa 0,0 l/m 1,4 km/h (1 Bft) S 180 0 min -2,5 C -0,2 C 2,6 km/h (1 Bft)
15.01.2016 09:05 -0,1 C 22,5 C 0,3 C -0,2 C -0,3 C 0,0 C 84 % 90 % 0 % 1005,1 hPa 0,0 l/m 1,1 km/h (1 Bft) S 180 0 min -2,5 C -0,3 C 0,0 km/h (0 Bft)
15.01.2016 09:10 -0,3 C 22,5 C 0,1 C -0,3 C -0,4 C 0,0 C 84 % 90 % 0 % 1005,7 hPa 0,0 l/m 1,0 km/h (0 Bft) S 180 0 min -2,7 C -0,4 C 0,0 km/h (0 Bft)
15.01.2016 09:15 -0,4 C 22,5 C 0,2 C -0,3 C -0,3 C 0,1 C 84 % 90 % 3 % 1005,7 hPa 0,0 l/m 0,3 km/h (0 Bft) S 180 0 min -2,8 C -0,3 C 0,0 km/h (0 Bft)
15.01.2016 09:20 -0,4 C 22,4 C 0,4 C 0,1 C 0,1 C 0,5 C 84 % 90 % 13 % 1005,7 hPa 0,0 l/m 0,8 km/h (0 Bft) S 180 0 min -2,8 C 0,1 C 3,2 km/h (1 Bft)
15.01.2016 09:25 -0,3 C 22,5 C 0,5 C 0,4 C 0,4 C 0,7 C 84 % 90 % 18 % 1005,7 hPa 0,0 l/m 2,1 km/h (1 Bft) S 180 0 min -2,7 C 0,4 C 4,7 km/h (1 Bft)
15.01.2016 09:30 -0,1 C 22,5 C 0,7 C 0,0 C 0,0 C 0,1 C 84 % 90 % 3 % 1005,9 hPa 0,0 l/m 3,5 km/h (1 Bft) S 180 0 min -2,5 C 0,0 C 3,7 km/h (1 Bft)
15.01.2016 09:35 0,1 C 22,5 C 0,8 C 0,6 C 0,6 C 0,5 C 85 % 90 % 13 % 1005,9 hPa 0,0 l/m 2,7 km/h (1 Bft) S 180 0 min -2,1 C 0,6 C 3,1 km/h (1 Bft)
15.01.2016 09:41 0,0 C 22,4 C 0,9 C 1,1 C 1,1 C 1,1 C 84 % 90 % 29 % 1005,9 hPa 0,0 l/m 2,3 km/h (1 Bft) N 0 0 min -2,4 C 1,1 C 4,0 km/h (1 Bft)
15.01.2016 09:50 0,3 C 22,5 C 1,2 C 1,3 C 1,3 C 1,0 C 84 % 90 % 26 % 1006,0 hPa 0,0 l/m 1,8 km/h (1 Bft) S 180 0 min -2,1 C 1,3 C 1,6 km/h (1 Bft)
15.01.2016 09:55 0,4 C 22,5 C 1,3 C 1,4 C 1,4 C 1,0 C 84 % 90 % 26 % 1006,0 hPa 0,0 l/m 1,1 km/h (1 Bft) S 180 0 min -2,0 C 1,4 C 0,0 km/h (0 Bft)
15.01.2016 10:00 0,5 C 22,5 C 1,3 C 1,6 C 1,6 C 1,1 C 84 % 90 % 29 % 1006,0 hPa 0,0 l/m 0,3 km/h (0 Bft) S 180 0 min -1,9 C 1,6 C 0,0 km/h (0 Bft)
15.01.2016 10:05 0,4 C 22,5 C 1,2 C 1,6 C 1,6 C 1,2 C 84 % 90 % 32 % 1006,0 hPa 0,0 l/m 0,3 km/h (0 Bft) SW 225 0 min -2,0 C 1,6 C 0,0 km/h (0 Bft)
15.01.2016 10:10 0,5 C 22,5 C 1,3 C 1,7 C 1,7 C 1,2 C 84 % 90 % 32 % 1006,9 hPa 0,0 l/m 0,6 km/h (0 Bft) S-SO 157 0 min -1,9 C 1,7 C 4,5 km/h (1 Bft)
15.01.2016 10:15 0,7 C 22,5 C 1,5 C 1,8 C 1,8 C 1,1 C 84 % 90 % 29 % 1006,9 hPa 0,0 l/m 1,4 km/h (1 Bft) O 90 0 min -1,7 C 1,8 C 3,1 km/h (1 Bft)
15.01.2016 10:20 0,7 C 22,5 C 1,5 C 1,8 C 1,8 C 1,1 C 84 % 90 % 29 % 1006,9 hPa 0,0 l/m 2,3 km/h (1 Bft) S-SO 157 0 min -1,7 C 1,8 C 3,5 km/h (1 Bft)
15.01.2016 10:25 0,7 C 22,5 C 1,5 C 1,8 C 1,8 C 1,1 C 84 % 90 % 29 % 1006,9 hPa 0,0 l/m 1,8 km/h (1 Bft) S-SO 157 0 min -1,7 C 1,8 C 2,9 km/h (1 Bft)
15.01.2016 10:30 0,9 C 22,5 C 1,6 C 1,8 C 1,8 C 0,9 C 84 % 90 % 24 % 1006,5 hPa 0,0 l/m 1,8 km/h (1 Bft) W-SW 247 0 min -1,5 C 1,8 C 6,4 km/h (2 Bft)
15.01.2016 10:35 0,8 C 22,5 C 1,6 C 1,8 C 1,8 C 1,0 C 83 % 90 % 26 % 1006,5 hPa 0,7 l/m 1,6 km/h (1 Bft) SW 225 0 min -1,8 C 1,8 C 1,9 km/h (1 Bft)
15.01.2016 10:40 0,9 C 22,4 C 1,6 C 1,8 C 1,8 C 0,9 C 83 % 90 % 24 % 1006,5 hPa 0,0 l/m 1,4 km/h (1 Bft) S-SO 157 0 min -1,7 C 1,8 C 2,6 km/h (1 Bft)
15.01.2016 10:45 0,9 C 22,4 C 1,6 C 1,8 C 1,8 C 0,9 C 83 % 90 % 24 % 1006,5 hPa 0,0 l/m 1,0 km/h (0 Bft) NW 315 0 min -1,7 C 1,8 C 0,0 km/h (0 Bft)
15.01.2016 10:50 1,1 C 22,4 C 1,7 C 2,0 C 2,0 C 0,9 C 83 % 90 % 24 % 1006,8 hPa 0,0 l/m 1,9 km/h (1 Bft) S 180 0 min -1,5 C 2,0 C 2,9 km/h (1 Bft)
15.01.2016 10:55 1,1 C 22,4 C 1,9 C 2,1 C 2,1 C 1,0 C 83 % 90 % 26 % 1006,8 hPa 0,0 l/m 2,1 km/h (1 Bft) S 180 0 min -1,5 C 2,1 C 4,3 km/h (1 Bft)
15.01.2016 11:00 1,2 C 22,4 C 1,8 C 1,9 C 1,9 C 0,7 C 83 % 90 % 18 % 1006,8 hPa 0,0 l/m 2,9 km/h (1 Bft) S 180 0 min -1,4 C 1,9 C 5,0 km/h (1 Bft)
15.01.2016 11:05 1,3 C 22,5 C 1,9 C 1,9 C 1,9 C 0,6 C 83 % 90 % 16 % 1006,8 hPa 0,0 l/m 3,1 km/h (1 Bft) NO 45 0 min -1,3 C 1,9 C 0,0 km/h (0 Bft)
15.01.2016 11:10 1,3 C 22,4 C 2,0 C 2,3 C 2,3 C 1,0 C 83 % 90 % 26 % 1007,0 hPa 0,0 l/m 1,9 km/h (1 Bft) NW 315 0 min -1,3 C 2,3 C 0,0 km/h (0 Bft)
15.01.2016 11:15 1,4 C 22,4 C 2,0 C 2,5 C 2,5 C 1,1 C 83 % 90 % 29 % 1007,0 hPa 0,0 l/m 1,8 km/h (1 Bft) S 180 0 min -1,2 C 2,5 C 2,7 km/h (1 Bft)
15.01.2016 11:20 1,5 C 22,5 C 2,1 C 2,8 C 2,8 C 1,3 C 83 % 90 % 34 % 1007,0 hPa 0,0 l/m 1,0 km/h (0 Bft) O 90 0 min -1,1 C 2,8 C 0,0 km/h (0 Bft)
15.01.2016 11:25 1,5 C 22,5 C 2,3 C 3,0 C 3,0 C 1,5 C 83 % 90 % 39 % 1007,0 hPa 0,0 l/m 0,6 km/h (0 Bft) S 180 0 min -1,1 C 3,0 C 2,7 km/h (1 Bft)
15.01.2016 11:30 1,7 C 22,5 C 2,5 C 3,4 C 3,4 C 1,7 C 82 % 90 % 45 % 1006,4 hPa 0,0 l/m 1,0 km/h (0 Bft) W-SW 247 0 min -1,0 C 3,4 C 0,0 km/h (0 Bft)
15.01.2016 11:35 1,8 C 22,5 C 2,5 C 3,6 C 3,6 C 1,8 C 82 % 90 % 47 % 1006,4 hPa 0,0 l/m 1,1 km/h (1 Bft) S 180 0 min -0,9 C 3,6 C 3,5 km/h (1 Bft)
15.01.2016 11:40 1,9 C 22,5 C 2,4 C 3,6 C 3,6 C 1,7 C 82 % 90 % 45 % 1006,4 hPa 0,0 l/m 1,4 km/h (1 Bft) W-SW 247 0 min -0,8 C 3,6 C 0,0 km/h (0 Bft)
15.01.2016 11:45 1,9 C 22,5 C 2,5 C 3,6 C 3,6 C 1,7 C 81 % 90 % 45 % 1006,4 hPa 0,0 l/m 1,9 km/h (1 Bft) S-SO 157 0 min -1,0 C 3,6 C 4,5 km/h (1 Bft)
15.01.2016 11:50 1,9 C 22,5 C 2,4 C 3,2 C 3,2 C 1,3 C 81 % 90 % 34 % 1006,4 hPa 0,0 l/m 1,8 km/h (1 Bft) O-SO 112 0 min -1,0 C 3,2 C 1,9 km/h (1 Bft)
15.01.2016 11:55 2,0 C 22,5 C 2,4 C 3,1 C 3,1 C 1,1 C 81 % 90 % 29 % 1006,4 hPa 0,0 l/m 2,1 km/h (1 Bft) SW 225 0 min -0,9 C 3,1 C 3,1 km/h (1 Bft)
15.01.2016 12:00 2,0 C 22,5 C 2,4 C 2,9 C 2,9 C 0,9 C 81 % 89 % 24 % 1006,4 hPa 0,0 l/m 2,4 km/h (1 Bft) SO 135 0 min -0,9 C 2,9 C 4,7 km/h (1 Bft)
15.01.2016 12:05 2,0 C 22,5 C 2,3 C 2,9 C 2,9 C 0,9 C 81 % 89 % 24 % 1006,4 hPa 0,0 l/m 2,6 km/h (1 Bft) W-SW 247 0 min -0,9 C 2,9 C 2,9 km/h (1 Bft)
15.01.2016 12:10 1,9 C 22,5 C 2,3 C 2,6 C 2,6 C 0,7 C 81 % 89 % 18 % 1006,8 hPa 0,0 l/m 1,9 km/h (1 Bft) S-SW 202 0 min -1,0 C 2,6 C 2,7 km/h (1 Bft)
15.01.2016 12:15 1,9 C 22,5 C 2,3 C 2,6 C 2,6 C 0,7 C 81 % 89 % 18 % 1006,8 hPa 0,0 l/m 1,6 km/h (1 Bft) S-SO 157 0 min -1,0 C 2,6 C 1,6 km/h (1 Bft)
15.01.2016 12:20 2,0 C 22,5 C 2,4 C 2,6 C 2,6 C 0,6 C 81 % 89 % 16 % 1006,8 hPa 0,0 l/m 2,1 km/h (1 Bft) W-SW 247 0 min -0,9 C 2,6 C 3,4 km/h (1 Bft)
15.01.2016 12:25 2,0 C 22,5 C 2,3 C 2,7 C 2,7 C 0,7 C 81 % 89 % 18 % 1006,8 hPa 0,0 l/m 2,4 km/h (1 Bft) W-SW 247 0 min -0,9 C 2,7 C 6,1 km/h (2 Bft)
15.01.2016 12:30 2,1 C 22,5 C 2,4 C 2,6 C 2,6 C 0,5 C 80 % 89 % 13 % 1006,4 hPa 0,0 l/m 3,2 km/h (1 Bft) W 270 0 min -1,0 C 2,6 C 2,7 km/h (1 Bft)
15.01.2016 12:35 2,1 C 22,5 C 2,4 C 2,9 C 2,9 C 0,8 C 80 % 89 % 21 % 1006,4 hPa 0,0 l/m 2,9 km/h (1 Bft) W-SW 247 0 min -1,0 C 2,9 C 2,3 km/h (1 Bft)
15.01.2016 12:41 2,0 C 22,5 C 2,4 C 3,0 C 3,0 C 1,0 C 80 % 89 % 26 % 1006,4 hPa 0,7 l/m 2,6 km/h (1 Bft) N 0 0 min -1,1 C 3,0 C 3,4 km/h (1 Bft)
15.01.2016 12:50 2,0 C 22,5 C 2,4 C 2,5 C 2,5 C 0,5 C 80 % 89 % 13 % 1006,6 hPa 0,0 l/m 3,4 km/h (1 Bft) W-SW 247 0 min -1,1 C 2,5 C 4,3 km/h (1 Bft)
15.01.2016 12:55 2,0 C 22,5 C 2,3 C 1,9 C 1,8 C 0,0 C 80 % 89 % 0 % 1006,6 hPa 0,0 l/m 4,5 km/h (1 Bft) O 90 0 min -1,1 C 1,8 C 3,9 km/h (1 Bft)
15.01.2016 13:00 2,0 C 22,5 C 2,3 C 1,9 C 1,8 C 0,0 C 80 % 90 % 0 % 1006,6 hPa 0,0 l/m 4,3 km/h (1 Bft) W-SW 247 0 min -1,1 C 1,8 C 4,2 km/h (1 Bft)
15.01.2016 13:05 2,1 C 22,5 C 2,3 C 2,0 C 1,8 C 0,0 C 80 % 90 % 0 % 1006,6 hPa 0,0 l/m 4,3 km/h (1 Bft) S-SW 202 0 min -1,0 C 1,8 C 12,1 km/h (2 Bft)
15.01.2016 13:10 2,0 C 22,5 C 2,3 C 1,8 C 1,4 C 0,0 C 80 % 90 % 0 % 1006,8 hPa 0,0 l/m 4,8 km/h (1 Bft) S 180 0 min -1,1 C 0,1 C 5,0 km/h (1 Bft)
15.01.2016 13:15 2,0 C 22,5 C 2,3 C 1,9 C 1,7 C 0,0 C 80 % 91 % 0 % 1006,8 hPa 0,0 l/m 4,3 km/h (1 Bft) W 270 0 min -1,1 C 1,7 C 6,3 km/h (2 Bft)
15.01.2016 13:20 1,8 C 22,5 C 2,3 C 1,8 C 1,7 C 0,0 C 80 % 91 % 0 % 1006,8 hPa 0,0 l/m 4,3 km/h (1 Bft) SW 225 0 min -1,3 C 1,7 C 7,4 km/h (2 Bft)
15.01.2016 13:25 1,9 C 22,5 C 2,2 C 1,7 C 1,4 C 0,0 C 81 % 91 % 0 % 1006,8 hPa 0,0 l/m 5,0 km/h (1 Bft) W-SW 247 0 min -1,0 C -0,0 C 5,3 km/h (1 Bft)
15.01.2016 13:30 1,7 C 22,5 C 2,3 C 1,6 C 1,3 C 0,0 C 81 % 91 % 0 % 1006,8 hPa 0,0 l/m 4,8 km/h (1 Bft) W 270 0 min -1,2 C -0,0 C 6,4 km/h (2 Bft)
15.01.2016 13:35 1,6 C 22,5 C 2,2 C 1,9 C 1,9 C 0,3 C 81 % 91 % 8 % 1006,8 hPa 0,0 l/m 3,5 km/h (1 Bft) W 270 0 min -1,3 C 1,9 C 3,9 km/h (1 Bft)
15.01.2016 13:40 1,7 C 22,5 C 2,1 C 2,1 C 2,1 C 0,4 C 81 % 91 % 11 % 1006,8 hPa 0,0 l/m 3,4 km/h (1 Bft) W 270 0 min -1,2 C 2,1 C 9,0 km/h (2 Bft)
15.01.2016 13:45 1,5 C 22,5 C 2,1 C 1,4 C 1,1 C 0,0 C 81 % 91 % 0 % 1006,8 hPa 0,0 l/m 4,7 km/h (1 Bft) W-SW 247 0 min -1,4 C -0,2 C 6,1 km/h (2 Bft)
15.01.2016 13:50 1,3 C 22,5 C 2,0 C 1,1 C 0,7 C 0,0 C 82 % 90 % 0 % 1007,1 hPa 0,0 l/m 5,3 km/h (1 Bft) SW 225 0 min -1,4 C -0,9 C 5,6 km/h (1 Bft)
15.01.2016 13:55 1,3 C 22,5 C 2,0 C 1,2 C 1,1 C 0,0 C 82 % 90 % 0 % 1007,1 hPa 0,0 l/m 4,2 km/h (1 Bft) W 270 0 min -1,4 C 1,1 C 5,8 km/h (2 Bft)
15.01.2016 14:00 1,2 C 22,5 C 1,9 C 1,1 C 0,9 C 0,0 C 82 % 90 % 0 % 1007,1 hPa 0,0 l/m 4,0 km/h (1 Bft) W-SW 247 0 min -1,5 C 0,9 C 5,5 km/h (1 Bft)
15.01.2016 14:05 1,1 C 22,5 C 1,9 C 1,0 C 0,7 C 0,0 C 82 % 90 % 0 % 1007,1 hPa 0,0 l/m 4,3 km/h (1 Bft) SW 225 0 min -1,6 C 0,7 C 6,0 km/h (2 Bft)
15.01.2016 14:10 1,1 C 22,5 C 1,9 C 1,1 C 1,0 C 0,0 C 83 % 90 % 0 % 1007,0 hPa 0,0 l/m 3,7 km/h (1 Bft) SW 225 0 min -1,5 C 1,0 C 3,4 km/h (1 Bft)
15.01.2016 14:15 0,9 C 22,5 C 1,9 C 1,1 C 1,1 C 0,2 C 83 % 90 % 5 % 1007,0 hPa 0,0 l/m 3,5 km/h (1 Bft) W-SW 247 0 min -1,7 C 1,1 C 3,1 km/h (1 Bft)
15.01.2016 14:20 0,8 C 22,5 C 1,9 C 1,4 C 1,4 C 0,6 C 83 % 90 % 16 % 1007,0 hPa 0,0 l/m 3,1 km/h (1 Bft) SW 225 0 min -1,8 C 1,4 C 2,4 km/h (1 Bft)
15.01.2016 14:25 0,8 C 22,5 C 1,9 C 1,8 C 1,8 C 1,0 C 83 % 90 % 26 % 1007,0 hPa 0,0 l/m 2,4 km/h (1 Bft) SW 225 0 min -1,8 C 1,8 C 1,9 km/h (1 Bft)
15.01.2016 14:30 0,8 C 22,6 C 2,0 C 1,8 C 1,8 C 1,0 C 83 % 89 % 26 % 1007,0 hPa 0,0 l/m 2,4 km/h (1 Bft) S-SO 157 0 min -1,8 C 1,8 C 3,9 km/h (1 Bft)
15.01.2016 14:35 0,8 C 22,6 C 1,9 C 1,3 C 1,3 C 0,5 C 83 % 89 % 13 % 1007,0 hPa 0,0 l/m 3,2 km/h (1 Bft) SW 225 0 min -1,8 C 1,3 C 5,3 km/h (1 Bft)
15.01.2016 14:40 0,7 C 22,6 C 1,9 C 1,3 C 1,3 C 0,6 C 84 % 89 % 16 % 1007,0 hPa 0,0 l/m 3,2 km/h (1 Bft) W 270 0 min -1,7 C 1,3 C 1,9 km/h (1 Bft)
15.01.2016 14:45 0,8 C 22,6 C 1,9 C 1,8 C 1,8 C 1,0 C 84 % 89 % 26 % 1007,0 hPa 0,0 l/m 2,4 km/h (1 Bft) SO 135 0 min -1,6 C 1,8 C 3,9 km/h (1 Bft)
15.01.2016 14:50 0,7 C 22,6 C 1,9 C 1,8 C 1,8 C 1,1 C 84 % 89 % 29 % 1007,4 hPa 0,0 l/m 1,9 km/h (1 Bft) S 180 0 min -1,7 C 1,8 C 0,0 km/h (0 Bft)
15.01.2016 14:55 0,7 C 22,6 C 1,9 C 1,7 C 1,7 C 1,0 C 84 % 88 % 26 % 1007,4 hPa 0,0 l/m 1,4 km/h (1 Bft) S-SW 202 0 min -1,7 C 1,7 C 0,0 km/h (0 Bft)
15.01.2016 15:00 0,7 C 22,6 C 1,9 C 1,7 C 1,7 C 1,0 C 84 % 88 % 26 % 1007,4 hPa 0,0 l/m 0,8 km/h (0 Bft) NW 315 0 min -1,7 C 1,7 C 2,9 km/h (1 Bft)
15.01.2016 15:05 0,7 C 22,6 C 1,9 C 1,6 C 1,6 C 0,9 C 84 % 88 % 24 % 1007,4 hPa 0,0 l/m 0,8 km/h (0 Bft) W-SW 247 0 min -1,7 C 1,6 C 0,0 km/h (0 Bft)
15.01.2016 15:10 0,7 C 22,6 C 1,8 C 1,5 C 1,5 C 0,8 C 84 % 88 % 21 % 1007,7 hPa 0,0 l/m 1,0 km/h (0 Bft) S-SO 157 0 min -1,7 C 1,5 C 0,0 km/h (0 Bft)
15.01.2016 15:15 0,7 C 22,6 C 1,9 C 1,5 C 1,5 C 0,8 C 84 % 88 % 21 % 1007,7 hPa 0,0 l/m 0,5 km/h (0 Bft) W-SW 247 0 min -1,7 C 1,5 C 1,9 km/h (1 Bft)
15.01.2016 15:20 0,5 C 22,6 C 1,7 C 1,4 C 1,4 C 0,9 C 85 % 88 % 24 % 1007,7 hPa 0,0 l/m 1,4 km/h (1 Bft) W-SW 247 0 min -1,7 C 1,4 C 2,4 km/h (1 Bft)
15.01.2016 15:25 0,5 C 22,6 C 1,6 C 1,3 C 1,3 C 0,8 C 85 % 88 % 21 % 1007,7 hPa 0,0 l/m 1,8 km/h (1 Bft) W-SW 247 0 min -1,7 C 1,3 C 2,4 km/h (1 Bft)
15.01.2016 15:30 0,5 C 22,6 C 1,6 C 1,2 C 1,2 C 0,7 C 85 % 88 % 18 % 1007,8 hPa 0,0 l/m 2,1 km/h (1 Bft) W-SW 247 0 min -1,7 C 1,2 C 2,6 km/h (1 Bft)
15.01.2016 15:35 0,4 C 22,6 C 1,5 C 0,9 C 0,9 C 0,5 C 85 % 88 % 13 % 1007,8 hPa 0,0 l/m 2,6 km/h (1 Bft) SW 225 0 min -1,8 C 0,9 C 2,9 km/h (1 Bft)
15.01.2016 15:41 0,3 C 22,7 C 1,3 C 0,7 C 0,7 C 0,4 C 85 % 87 % 11 % 1007,8 hPa 0,0 l/m 2,1 km/h (1 Bft) N 0 0 min -1,9 C 0,7 C 2,7 km/h (1 Bft)
15.01.2016 15:50 0,3 C 22,7 C 1,1 C 0,5 C 0,5 C 0,2 C 85 % 87 % 5 % 1008,2 hPa 0,0 l/m 0,3 km/h (0 Bft) SO 135 0 min -1,9 C 0,5 C 0,0 km/h (0 Bft)
15.01.2016 15:55 0,1 C 22,7 C 1,1 C 0,4 C 0,4 C 0,3 C 85 % 87 % 8 % 1008,2 hPa 0,0 l/m 0,0 km/h (0 Bft) S 180 0 min -2,1 C 0,4 C 0,0 km/h (0 Bft)
15.01.2016 16:00 0,1 C 22,7 C 1,1 C 0,5 C 0,5 C 0,4 C 85 % 87 % 11 % 1008,2 hPa 0,0 l/m 0,0 km/h (0 Bft) O-NO 67 0 min -2,1 C 0,5 C 0,0 km/h (0 Bft)
15.01.2016 16:05 0,0 C 22,7 C 1,2 C 0,6 C 0,6 C 0,6 C 85 % 87 % 16 % 1008,2 hPa 0,0 l/m 0,0 km/h (0 Bft) O-NO 67 5 min -2,2 C 0,6 C 0,0 km/h (0 Bft)
15.01.2016 16:10 0,0 C 22,7 C 1,3 C 0,7 C 0,7 C 0,7 C 85 % 86 % 18 % 1008,5 hPa 0,0 l/m 0,0 km/h (0 Bft) O-NO 67 5 min -2,2 C 0,7 C 0,0 km/h (0 Bft)
15.01.2016 16:15 0,0 C 22,7 C 1,3 C 0,7 C 0,7 C 0,7 C 86 % 86 % 18 % 1008,5 hPa 0,0 l/m 0,0 km/h (0 Bft) O-NO 67 5 min -2,1 C 0,7 C 0,0 km/h (0 Bft)
15.01.2016 16:20 0,1 C 22,7 C 1,1 C 0,7 C 0,7 C 0,6 C 86 % 85 % 0 % 1008,5 hPa 0,0 l/m 0,0 km/h (0 Bft) O-SO 112 0 min -2,0 C 0,7 C 0,0 km/h (0 Bft)
15.01.2016 16:25 -0,1 C 22,8 C 1,0 C 0,6 C 0,6 C 0,7 C 86 % 85 % 0 % 1008,5 hPa 0,0 l/m 0,0 km/h (0 Bft) SW 225 0 min -2,2 C 0,6 C 0,0 km/h (0 Bft)
15.01.2016 16:30 -0,1 C 22,7 C 0,9 C 0,3 C 0,3 C 0,4 C 86 % 85 % 0 % 1008,8 hPa 0,0 l/m 0,0 km/h (0 Bft) S 180 0 min -2,2 C 0,3 C 0,0 km/h (0 Bft)
15.01.2016 16:35 -0,1 C 22,8 C 0,8 C 0,2 C 0,2 C 0,3 C 86 % 85 % 0 % 1008,8 hPa 0,0 l/m 0,0 km/h (0 Bft) O-SO 112 0 min -2,2 C 0,2 C 0,0 km/h (0 Bft)
15.01.2016 16:40 -0,1 C 22,8 C 0,8 C 0,1 C 0,1 C 0,2 C 86 % 85 % 0 % 1008,8 hPa 0,0 l/m 0,0 km/h (0 Bft) O-NO 67 0 min -2,2 C 0,1 C 0,0 km/h (0 Bft)
15.01.2016 16:45 -0,3 C 22,8 C 0,7 C 0,1 C 0,1 C 0,4 C 86 % 85 % 0 % 1008,8 hPa 0,0 l/m 0,0 km/h (0 Bft) O-NO 67 0 min -2,3 C 0,1 C 0,0 km/h (0 Bft)
15.01.2016 16:50 -0,3 C 22,8 C 0,6 C 0,1 C 0,1 C 0,4 C 85 % 85 % 0 % 1009,2 hPa 0,0 l/m 0,0 km/h (0 Bft) W-SW 247 0 min -2,5 C 0,1 C 0,0 km/h (0 Bft)
15.01.2016 16:55 -0,4 C 22,8 C 0,7 C 0,0 C 0,0 C 0,4 C 86 % 85 % 0 % 1009,2 hPa 0,0 l/m 0,0 km/h (0 Bft) W 270 0 min -2,4 C 0,0 C 0,0 km/h (0 Bft)
15.01.2016 17:00 -0,5 C 22,8 C 0,5 C -0,1 C -0,1 C 0,4 C 86 % 84 % 0 % 1009,2 hPa 0,0 l/m 0,0 km/h (0 Bft) W-SW 247 0 min -2,5 C -0,1 C 0,0 km/h (0 Bft)
15.01.2016 17:05 -0,5 C 22,8 C 0,4 C -0,2 C -0,2 C 0,3 C 86 % 84 % 0 % 1009,2 hPa 0,0 l/m 0,0 km/h (0 Bft) W-SW 247 0 min -2,5 C -0,2 C 0,0 km/h (0 Bft)
15.01.2016 17:10 -0,5 C 22,8 C 0,3 C -0,4 C -0,4 C 0,1 C 86 % 84 % 0 % 1009,3 hPa 0,0 l/m 0,0 km/h (0 Bft) W-SW 247 0 min -2,5 C -0,4 C 0,0 km/h (0 Bft)
15.01.2016 17:15 -0,6 C 22,8 C 0,1 C -0,6 C -0,7 C 0,0 C 86 % 84 % 0 % 1009,3 hPa 0,0 l/m 0,0 km/h (0 Bft) W-SW 247 0 min -2,6 C -0,7 C 0,0 km/h (0 Bft)
15.01.2016 17:20 -0,7 C 22,8 C -0,1 C -0,7 C -0,8 C 0,0 C 86 % 84 % 0 % 1009,3 hPa 0,0 l/m 0,0 km/h (0 Bft) W-SW 247 0 min -2,7 C -0,8 C 0,0 km/h (0 Bft)
15.01.2016 17:25 -0,8 C 22,8 C -0,1 C -0,8 C -0,9 C 0,0 C 86 % 84 % 0 % 1009,3 hPa 0,0 l/m 0,0 km/h (0 Bft) NO 45 0 min -2,8 C -0,9 C 0,0 km/h (0 Bft)
15.01.2016 17:30 -0,9 C 23,0 C -0,3 C -0,9 C -1,0 C 0,0 C 86 % 84 % 0 % 1009,4 hPa 0,0 l/m 0,0 km/h (0 Bft) O-NO 67 0 min -2,9 C -1,0 C 0,0 km/h (0 Bft)
15.01.2016 17:35 -0,9 C 23,0 C -0,3 C -1,0 C -1,1 C 0,0 C 86 % 84 % 0 % 1009,4 hPa 0,0 l/m 0,0 km/h (0 Bft) NO 45 0 min -2,9 C -1,1 C 0,0 km/h (0 Bft)
15.01.2016 17:40 -1,1 C 23,0 C -0,5 C -1,1 C -1,1 C 0,0 C 86 % 84 % 0 % 1009,4 hPa 0,0 l/m 0,0 km/h (0 Bft) NO 45 0 min -3,1 C -1,1 C 0,0 km/h (0 Bft)
15.01.2016 17:45 -1,2 C 22,9 C -0,5 C -1,2 C -1,2 C 0,0 C 86 % 83 % 0 % 1009,4 hPa 0,0 l/m 0,0 km/h (0 Bft) N-NW 337 0 min -3,2 C -1,2 C 0,0 km/h (0 Bft)
15.01.2016 17:50 -1,1 C 23,0 C -0,3 C -0,9 C -0,9 C 0,2 C 86 % 82 % 0 % 1010,1 hPa 0,0 l/m 0,0 km/h (0 Bft) N-NW 337 0 min -3,1 C -0,9 C 0,0 km/h (0 Bft)
15.01.2016 17:55 -1,1 C 23,0 C -0,1 C -0,7 C -0,7 C 0,4 C 86 % 82 % 0 % 1010,1 hPa 0,0 l/m 0,0 km/h (0 Bft) O-NO 67 0 min -3,1 C -0,7 C 0,0 km/h (0 Bft)
15.01.2016 18:00 -1,2 C 23,0 C -0,1 C -0,4 C -0,4 C 0,8 C 86 % 82 % 0 % 1010,1 hPa 0,0 l/m 0,0 km/h (0 Bft) O-NO 67 0 min -3,2 C -0,4 C 0,0 km/h (0 Bft)
15.01.2016 18:05 -1,2 C 23,0 C -0,1 C -0,4 C -0,4 C 0,8 C 87 % 82 % 0 % 1010,1 hPa 0,0 l/m 0,0 km/h (0 Bft) O-NO 67 0 min -3,1 C -0,4 C 0,0 km/h (0 Bft)
15.01.2016 18:10 -1,1 C 23,0 C -0,1 C -0,2 C -0,2 C 0,9 C 87 % 81 % 0 % 1010,1 hPa 0,0 l/m 0,0 km/h (0 Bft) O-NO 67 0 min -3,0 C -0,2 C 0,0 km/h (0 Bft)
15.01.2016 18:15 -1,2 C 22,9 C 0,1 C -0,2 C -0,2 C 1,0 C 87 % 81 % 0 % 1010,1 hPa 0,0 l/m 0,0 km/h (0 Bft) O-NO 67 0 min -3,1 C -0,2 C 0,0 km/h (0 Bft)
15.01.2016 18:20 -1,1 C 22,9 C 0,0 C -0,1 C -0,1 C 1,0 C 87 % 81 % 0 % 1010,1 hPa 0,0 l/m 0,0 km/h (0 Bft) O-NO 67 0 min -3,0 C -0,1 C 0,0 km/h (0 Bft)
15.01.2016 18:25 -1,1 C 22,9 C 0,1 C 0,0 C 0,0 C 1,1 C 87 % 81 % 0 % 1010,1 hPa 0,0 l/m 0,0 km/h (0 Bft) N-NW 337 0 min -3,0 C 0,0 C 0,0 km/h (0 Bft)
15.01.2016 18:30 -0,9 C 22,9 C 0,2 C 0,0 C 0,0 C 0,9 C 87 % 81 % 0 % 1010,4 hPa 0,0 l/m 0,0 km/h (0 Bft) O-NO 67 0 min -2,8 C 0,0 C 0,0 km/h (0 Bft)
15.01.2016 18:35 -0,9 C 22,9 C 0,3 C 0,1 C 0,1 C 1,0 C 88 % 81 % 0 % 1010,4 hPa 0,0 l/m 0,6 km/h (0 Bft) W 270 0 min -2,6 C 0,1 C 2,9 km/h (1 Bft)
15.01.2016 18:41 -0,8 C 22,9 C 0,3 C 0,2 C 0,2 C 1,0 C 88 % 80 % 0 % 1010,4 hPa 0,0 l/m 1,9 km/h (1 Bft) N 0 0 min -2,5 C 0,2 C 1,8 km/h (1 Bft)
15.01.2016 18:50 -0,7 C 22,9 C 0,5 C 0,2 C 0,2 C 0,9 C 88 % 80 % 0 % 1010,7 hPa 0,0 l/m 2,1 km/h (1 Bft) O-NO 67 0 min -2,4 C 0,2 C 2,3 km/h (1 Bft)
15.01.2016 18:55 -0,7 C 22,9 C 0,4 C 0,2 C 0,2 C 0,9 C 88 % 79 % 0 % 1010,7 hPa 0,0 l/m 1,4 km/h (1 Bft) N-NO 22 0 min -2,4 C 0,2 C 1,8 km/h (1 Bft)
15.01.2016 19:00 -0,5 C 22,9 C 0,4 C 0,2 C 0,2 C 0,7 C 88 % 79 % 0 % 1010,7 hPa 0,0 l/m 1,3 km/h (1 Bft) N 360 0 min -2,2 C 0,2 C 3,5 km/h (1 Bft)
15.01.2016 19:05 -0,5 C 22,9 C 0,4 C 0,2 C 0,2 C 0,7 C 88 % 79 % 0 % 1010,7 hPa 0,0 l/m 1,9 km/h (1 Bft) NO 45 0 min -2,2 C 0,2 C 2,7 km/h (1 Bft)
15.01.2016 19:10 -0,5 C 22,8 C 0,5 C 0,2 C 0,2 C 0,7 C 88 % 79 % 0 % 1011,2 hPa 0,0 l/m 2,3 km/h (1 Bft) N-NO 22 0 min -2,2 C 0,2 C 1,6 km/h (1 Bft)
15.01.2016 19:15 -0,6 C 22,8 C 0,4 C 0,2 C 0,2 C 0,8 C 88 % 79 % 0 % 1011,2 hPa 0,0 l/m 1,8 km/h (1 Bft) N-NO 22 0 min -2,3 C 0,2 C 1,9 km/h (1 Bft)
15.01.2016 19:20 -0,5 C 22,9 C 0,4 C 0,2 C 0,2 C 0,7 C 88 % 79 % 0 % 1011,2 hPa 0,0 l/m 1,9 km/h (1 Bft) NO 45 0 min -2,2 C 0,2 C 2,3 km/h (1 Bft)
15.01.2016 19:25 -0,5 C 22,8 C 0,4 C 0,1 C 0,1 C 0,6 C 88 % 79 % 0 % 1011,2 hPa 0,0 l/m 2,6 km/h (1 Bft) S-SO 157 0 min -2,2 C 0,1 C 3,7 km/h (1 Bft)
15.01.2016 19:30 -0,7 C 22,8 C 0,4 C 0,2 C 0,2 C 0,9 C 88 % 79 % 0 % 1011,2 hPa 0,0 l/m 2,1 km/h (1 Bft) W 270 0 min -2,4 C 0,2 C 3,4 km/h (1 Bft)
15.01.2016 19:35 -0,7 C 22,8 C 0,3 C 0,1 C 0,1 C 0,8 C 88 % 79 % 0 % 1011,2 hPa 0,0 l/m 1,8 km/h (1 Bft) O-NO 67 0 min -2,4 C 0,1 C 4,3 km/h (1 Bft)
15.01.2016 19:40 -0,7 C 22,8 C 0,3 C 0,1 C 0,1 C 0,8 C 88 % 79 % 0 % 1011,2 hPa 0,0 l/m 1,1 km/h (1 Bft) NW 315 0 min -2,4 C 0,1 C 0,0 km/h (0 Bft)
15.01.2016 19:45 -0,7 C 22,8 C 0,3 C 0,1 C 0,1 C 0,8 C 88 % 79 % 0 % 1011,2 hPa 0,0 l/m 1,3 km/h (1 Bft) O-NO 67 0 min -2,4 C 0,1 C 0,0 km/h (0 Bft)
15.01.2016 19:50 -0,7 C 22,8 C 0,3 C 0,1 C 0,1 C 0,8 C 88 % 79 % 0 % 1011,4 hPa 0,0 l/m 1,3 km/h (1 Bft) N-NO 22 0 min -2,4 C 0,1 C 2,4 km/h (1 Bft)
15.01.2016 19:55 -0,8 C 22,8 C 0,3 C 0,0 C 0,0 C 0,8 C 88 % 79 % 0 % 1011,4 hPa 0,0 l/m 1,0 km/h (0 Bft) N-NW 337 0 min -2,5 C 0,0 C 2,1 km/h (1 Bft)
15.01.2016 20:00 -0,8 C 22,8 C 0,3 C 0,0 C 0,0 C 0,8 C 88 % 79 % 0 % 1011,4 hPa 0,0 l/m 1,0 km/h (0 Bft) NW 315 0 min -2,5 C 0,0 C 0,0 km/h (0 Bft)
15.01.2016 20:05 -0,8 C 22,8 C 0,3 C 0,0 C 0,0 C 0,8 C 88 % 79 % 0 % 1011,4 hPa 0,0 l/m 1,8 km/h (1 Bft) O-NO 67 0 min -2,5 C 0,0 C 2,7 km/h (1 Bft)
15.01.2016 20:10 -0,8 C 22,8 C 0,3 C 0,0 C 0,0 C 0,8 C 88 % 79 % 0 % 1011,8 hPa 0,0 l/m 1,9 km/h (1 Bft) O-NO 67 0 min -2,5 C 0,0 C 2,3 km/h (1 Bft)
15.01.2016 20:15 -0,7 C 22,7 C 0,2 C 0,0 C 0,0 C 0,7 C 88 % 79 % 0 % 1011,8 hPa 0,0 l/m 1,8 km/h (1 Bft) O-NO 67 0 min -2,4 C 0,0 C 1,8 km/h (1 Bft)
15.01.2016 20:20 -0,9 C 22,7 C 0,2 C 0,0 C 0,0 C 0,9 C 88 % 79 % 0 % 1011,8 hPa 0,0 l/m 1,8 km/h (1 Bft) N-NO 22 0 min -2,6 C 0,0 C 2,3 km/h (1 Bft)
15.01.2016 20:25 -0,9 C 22,7 C 0,2 C 0,0 C 0,0 C 0,9 C 88 % 79 % 0 % 1011,8 hPa 0,0 l/m 1,4 km/h (1 Bft) O-NO 67 0 min -2,6 C 0,0 C 0,0 km/h (0 Bft)
15.01.2016 20:30 -0,9 C 22,7 C 0,2 C 0,0 C 0,0 C 0,9 C 88 % 79 % 0 % 1011,9 hPa 0,0 l/m 0,8 km/h (0 Bft) N-NO 22 0 min -2,6 C 0,0 C 2,4 km/h (1 Bft)
15.01.2016 20:35 -0,9 C 22,7 C 0,2 C 0,0 C 0,0 C 0,9 C 88 % 79 % 0 % 1011,9 hPa 0,0 l/m 0,3 km/h (0 Bft) N 360 0 min -2,6 C 0,0 C 1,6 km/h (1 Bft)
15.01.2016 20:40 -0,9 C 22,7 C 0,2 C 0,0 C 0,0 C 0,9 C 88 % 79 % 0 % 1011,9 hPa 0,0 l/m 0,6 km/h (0 Bft) NW 315 0 min -2,6 C 0,0 C 0,0 km/h (0 Bft)
15.01.2016 20:45 -0,9 C 22,7 C 0,2 C 0,0 C 0,0 C 0,9 C 88 % 79 % 0 % 1011,9 hPa 0,0 l/m 1,1 km/h (1 Bft) N-NW 337 0 min -2,6 C 0,0 C 2,9 km/h (1 Bft)
15.01.2016 20:50 -0,9 C 22,7 C 0,3 C 0,0 C 0,0 C 0,9 C 88 % 79 % 0 % 1012,6 hPa 0,0 l/m 1,8 km/h (1 Bft) N-NO 22 0 min -2,6 C 0,0 C 7,4 km/h (2 Bft)
15.01.2016 20:55 -0,9 C 22,7 C 0,2 C 0,0 C 0,0 C 0,9 C 88 % 79 % 0 % 1012,6 hPa 0,0 l/m 1,4 km/h (1 Bft) O-NO 67 0 min -2,6 C 0,0 C 2,6 km/h (1 Bft)
15.01.2016 21:00 -0,9 C 22,7 C 0,2 C 0,1 C 0,1 C 1,0 C 88 % 79 % 0 % 1012,6 hPa 0,0 l/m 2,1 km/h (1 Bft) NW 315 0 min -2,6 C 0,1 C 8,0 km/h (2 Bft)
15.01.2016 21:05 -0,9 C 22,6 C 0,2 C 0,1 C 0,1 C 1,0 C 88 % 79 % 0 % 1012,6 hPa 0,0 l/m 2,1 km/h (1 Bft) O 90 0 min -2,6 C 0,1 C 0,0 km/h (0 Bft)
15.01.2016 21:10 -0,9 C 22,7 C 0,3 C 0,1 C 0,1 C 1,0 C 88 % 79 % 0 % 1012,5 hPa 0,0 l/m 2,3 km/h (1 Bft) N-NW 337 0 min -2,6 C 0,1 C 2,6 km/h (1 Bft)
15.01.2016 21:15 -0,9 C 22,7 C 0,3 C 0,1 C 0,1 C 1,0 C 88 % 79 % 0 % 1012,5 hPa 0,0 l/m 1,9 km/h (1 Bft) O-NO 67 0 min -2,6 C 0,1 C 3,4 km/h (1 Bft)
15.01.2016 21:20 -0,9 C 22,7 C 0,3 C 0,0 C 0,0 C 0,9 C 88 % 79 % 0 % 1012,5 hPa 0,0 l/m 1,4 km/h (1 Bft) O-NO 67 0 min -2,6 C 0,0 C 2,1 km/h (1 Bft)
15.01.2016 21:25 -0,9 C 22,7 C 0,3 C 0,0 C 0,0 C 0,9 C 88 % 79 % 0 % 1012,5 hPa 0,0 l/m 1,6 km/h (1 Bft) O 90 0 min -2,6 C 0,0 C 2,7 km/h (1 Bft)
15.01.2016 21:30 -0,9 C 22,7 C 0,3 C 0,0 C 0,0 C 0,9 C 88 % 79 % 0 % 1012,5 hPa 0,0 l/m 1,4 km/h (1 Bft) NO 45 0 min -2,6 C 0,0 C 2,1 km/h (1 Bft)
15.01.2016 21:35 -0,9 C 22,7 C 0,3 C 0,0 C 0,0 C 0,9 C 88 % 79 % 0 % 1012,5 hPa 0,0 l/m 1,4 km/h (1 Bft) W 270 0 min -2,6 C 0,0 C 3,5 km/h (1 Bft)
15.01.2016 21:41 -0,9 C 22,8 C 0,3 C 0,0 C 0,0 C 0,9 C 88 % 79 % 0 % 1012,5 hPa 0,0 l/m 1,1 km/h (1 Bft) N 0 0 min -2,6 C 0,0 C 1,6 km/h (1 Bft)
15.01.2016 21:50 -0,9 C 22,8 C 0,1 C -0,1 C -0,1 C 0,8 C 88 % 79 % 0 % 1013,2 hPa 0,0 l/m 1,8 km/h (1 Bft) N-NO 22 0 min -2,6 C -0,1 C 5,8 km/h (2 Bft)
15.01.2016 21:55 -1,0 C 22,7 C 0,1 C -0,1 C -0,1 C 0,9 C 88 % 79 % 0 % 1013,2 hPa 0,0 l/m 1,6 km/h (1 Bft) O-SO 112 0 min -2,7 C -0,1 C 0,0 km/h (0 Bft)
15.01.2016 22:00 -0,9 C 22,7 C 0,1 C -0,1 C -0,1 C 0,8 C 88 % 79 % 0 % 1013,2 hPa 0,0 l/m 1,9 km/h (1 Bft) N-NO 22 0 min -2,6 C -0,1 C 4,3 km/h (1 Bft)
15.01.2016 22:05 -0,9 C 22,7 C 0,0 C -0,2 C -0,2 C 0,7 C 88 % 80 % 0 % 1013,2 hPa 0,0 l/m 2,3 km/h (1 Bft) W-NW 292 0 min -2,6 C -0,2 C 5,1 km/h (1 Bft)
15.01.2016 22:10 -1,1 C 22,7 C 0,0 C -1,1 C -1,1 C 0,0 C 88 % 80 % 0 % 1013,7 hPa 0,0 l/m 3,7 km/h (1 Bft) N 360 0 min -2,8 C -1,1 C 7,6 km/h (2 Bft)
15.01.2016 22:15 -1,1 C 22,9 C -0,1 C -1,5 C -2,2 C 0,0 C 88 % 80 % 0 % 1013,7 hPa 0,0 l/m 5,6 km/h (1 Bft) N-NW 337 0 min -2,8 C -4,4 C 12,4 km/h (3 Bft)
15.01.2016 22:20 -1,3 C 22,9 C -0,1 C -1,7 C -2,5 C 0,0 C 88 % 80 % 0 % 1013,7 hPa 0,0 l/m 5,8 km/h (2 Bft) N-NO 22 0 min -3,0 C -4,8 C 6,9 km/h (2 Bft)
15.01.2016 22:25 -1,4 C 22,9 C -0,1 C -1,8 C -2,5 C 0,0 C 88 % 80 % 0 % 1013,7 hPa 0,0 l/m 5,5 km/h (1 Bft) W-SW 247 0 min -3,1 C -4,7 C 14,6 km/h (3 Bft)
15.01.2016 22:30 -1,5 C 22,9 C -0,3 C -1,8 C -2,5 C 0,0 C 88 % 80 % 0 % 1014,0 hPa 0,0 l/m 5,1 km/h (1 Bft) N-NW 337 0 min -3,2 C -4,5 C 10,6 km/h (2 Bft)
15.01.2016 22:35 -1,5 C 22,9 C -0,4 C -1,8 C -2,3 C 0,0 C 88 % 80 % 0 % 1014,0 hPa 0,0 l/m 4,7 km/h (1 Bft) NW 315 0 min -3,2 C -4,0 C 3,5 km/h (1 Bft)
15.01.2016 22:40 -1,6 C 22,9 C -0,4 C -1,7 C -1,9 C 0,0 C 88 % 80 % 0 % 1014,0 hPa 0,0 l/m 4,0 km/h (1 Bft) NW 315 0 min -3,3 C -1,9 C 3,2 km/h (1 Bft)
15.01.2016 22:45 -1,6 C 22,9 C -0,4 C -1,4 C -1,4 C 0,2 C 88 % 80 % 0 % 1014,0 hPa 0,0 l/m 3,1 km/h (1 Bft) N-NO 22 0 min -3,3 C -1,4 C 1,9 km/h (1 Bft)
15.01.2016 22:50 -1,7 C 22,9 C -0,4 C -0,9 C -0,9 C 0,8 C 89 % 80 % 0 % 1014,9 hPa 0,0 l/m 1,8 km/h (1 Bft) NW 315 0 min -3,3 C -0,9 C 7,1 km/h (2 Bft)
15.01.2016 22:55 -1,7 C 22,9 C -0,5 C -1,5 C -1,5 C 0,2 C 89 % 80 % 0 % 1014,9 hPa 0,0 l/m 3,1 km/h (1 Bft) N-NW 337 0 min -3,3 C -1,5 C 3,1 km/h (1 Bft)
15.01.2016 23:00 -1,7 C 22,9 C -0,5 C -1,8 C -2,1 C 0,0 C 89 % 80 % 0 % 1014,9 hPa 0,0 l/m 4,0 km/h (1 Bft) NW 315 0 min -3,3 C -2,1 C 5,0 km/h (1 Bft)
15.01.2016 23:05 -1,7 C 22,9 C -0,3 C -0,9 C -0,9 C 0,8 C 89 % 80 % 0 % 1014,9 hPa 0,0 l/m 2,1 km/h (1 Bft) O-NO 67 0 min -3,3 C -0,9 C 2,1 km/h (1 Bft)
15.01.2016 23:10 -1,7 C 22,9 C -0,5 C -0,9 C -0,9 C 0,8 C 89 % 80 % 0 % 1014,7 hPa 0,0 l/m 1,1 km/h (1 Bft) SW 225 0 min -3,3 C -0,9 C 1,9 km/h (1 Bft)
15.01.2016 23:15 -1,7 C 22,8 C -0,5 C -0,9 C -0,9 C 0,8 C 89 % 80 % 0 % 1014,7 hPa 0,0 l/m 1,8 km/h (1 Bft) N-NW 337 0 min -3,3 C -0,9 C 2,6 km/h (1 Bft)
15.01.2016 23:20 -1,7 C 22,8 C -0,5 C -1,1 C -1,1 C 0,6 C 89 % 80 % 0 % 1014,7 hPa 0,0 l/m 2,6 km/h (1 Bft) N-NO 22 0 min -3,3 C -1,1 C 1,9 km/h (1 Bft)
15.01.2016 23:25 -1,7 C 22,8 C -0,5 C -1,2 C -1,2 C 0,5 C 89 % 80 % 0 % 1014,7 hPa 0,0 l/m 2,7 km/h (1 Bft) NW 315 0 min -3,3 C -1,2 C 4,5 km/h (1 Bft)
15.01.2016 23:30 -1,7 C 22,8 C -0,5 C -0,9 C -0,9 C 0,8 C 89 % 80 % 0 % 1014,9 hPa 0,0 l/m 2,1 km/h (1 Bft) NW 315 0 min -3,3 C -0,9 C 2,7 km/h (1 Bft)
15.01.2016 23:35 -1,7 C 22,7 C -0,5 C -1,1 C -1,1 C 0,6 C 89 % 80 % 0 % 1014,9 hPa 0,0 l/m 2,6 km/h (1 Bft) N-NW 337 0 min -3,3 C -1,1 C 3,4 km/h (1 Bft)
15.01.2016 23:40 -1,8 C 22,7 C -0,6 C -1,6 C -1,6 C 0,2 C 89 % 80 % 0 % 1014,9 hPa 0,0 l/m 3,1 km/h (1 Bft) N-NO 22 0 min -3,4 C -1,6 C 2,7 km/h (1 Bft)
15.01.2016 23:45 -1,8 C 22,7 C -0,6 C -1,3 C -1,3 C 0,5 C 89 % 80 % 0 % 1014,9 hPa 0,0 l/m 2,7 km/h (1 Bft) NW 315 0 min -3,4 C -1,3 C 0,0 km/h (0 Bft)
15.01.2016 23:50 -1,7 C 22,7 C -0,6 C -1,1 C -1,1 C 0,6 C 89 % 80 % 0 % 1015,3 hPa 0,0 l/m 2,4 km/h (1 Bft) NW 315 0 min -3,3 C -1,1 C 3,7 km/h (1 Bft)
15.01.2016 23:55 -1,7 C 22,7 C -0,6 C -1,0 C -1,0 C 0,7 C 89 % 80 % 0 % 1015,3 hPa 0,0 l/m 2,1 km/h (1 Bft) N-NW 337 0 min -3,3 C -1,0 C 2,6 km/h (1 Bft)
_ Min-Zeit 23:40 09:20 23:40 22:25 22:20 01:10 12:30 18:55 00:00 06:30 - 03:25 - - - 23:40 22:20 00:05
Minimum _ -1,8 C 22,4 C -0,6 C -1,8 C -2,5 C 0,0 C 80 % 79 % 0 % 1004,2 hPa - 0,0 km/h (0 Bft) - - - -3,4 C -4,8 C 0,0 km/h (0 Bft)
_ Max-Zeit 12:30 17:30 11:30 11:35 11:35 11:35 22:50 13:15 11:35 23:50 10:35 22:20 - - 16:05 11:40 11:35 22:25
Maximum _ 2,1 C 23,0 C 2,5 C 3,6 C 3,6 C 1,8 C 89 % 91 % 47 % 1015,3 hPa 0,7 l/m 5,8 km/h
N-NO (2 Bft)
- - 5 min -0,8 C 3,6 C 14,6 km/h
W-SW (3 Bft)
Durchschnitt _ -0,1 C 22,7 C 0,8 C 0,4 C 0,3 C 0,5 C 86 % 86 % 5 % 1007,7 hPa #1,4 l/m 1,9 km/h (1 Bft) S - #15 min. -2,2 C 0,3 C 2,7 km/h (1 Bft)
2016 www.wetterstation-wechselburg.de